ADDS METAR Data INFO
IDs: Format: Raw Decoded Include TAF

Data at: 2225 UTC 22 Aug 2017

KORG 222215Z AUTO 17006KT 10SM CLR 32/23 A3002 RMK AO2 LTG DSNT N AND NE T03200231
KORG 222155Z AUTO 19005KT 10SM CLR 32/23 A3002 RMK AO2 LTG DSNT NE T03200232
KORG 222135Z AUTO 21004KT 10SM SCT110 32/23 A3002 RMK AO2 LTG DSNT NE T03180227
KORG 222115Z AUTO 15005KT 10SM CLR 32/23 A3003 RMK AO2 LTG DSNT NE T03200230
KORG 222055Z AUTO 16005KT 10SM CLR 31/23 A3003 RMK AO2 T03140227
KORG 222035Z AUTO 16004KT 10SM VCTS CLR 31/23 A3004 RMK AO2 LTG DSNT N AND NE T03050231
KORG 222015Z AUTO 16005KT 10SM CLR 30/23 A3005 RMK AO2 LTG DSNT N T03020228
KORG 221955Z AUTO 17006KT 10SM CLR 31/23 A3006 RMK AO2 T03080231
KORG 221935Z AUTO 16006KT 10SM CLR 31/23 A3007 RMK AO2 LTG DSNT NE T03100227
KORG 221915Z AUTO 16006KT 10SM CLR 30/23 A3007 RMK AO2 T03030230
KORG 221855Z AUTO 12006KT 10SM SCT045 SCT110 29/24 A3008 RMK AO2 LTG DSNT E T02860236
KORG 221835Z AUTO 16005KT 10SM SCT040 SCT050 BKN070 27/24 A3008 RMK AO2 LTG DSNT E T02690235
KORG 221815Z AUTO 15011G16KT 10SM VCTS BKN040 BKN046 BKN070 28/23 A3009 RMK AO2 LTG DSNT E AND SE T02760228
KORG 221755Z AUTO 00000KT 10SM SCT040 SCT046 32/23 A3008 RMK AO2 LTG DSNT E AND SE T03150233 10319 20238
KORG 221735Z AUTO 00000KT 10SM VCTS SCT033 SCT040 SCT050 31/24 A3009 RMK AO2 LTG DSNT E THRU S T03080239
KORG 221715Z AUTO 00000KT 10SM VCTS SCT028 BKN035 BKN055 31/25 A3009 RMK AO2 LTG DSNT E THRU S T03050248
KORG 221655Z AUTO 00000KT 10SM SCT028 BKN038 BKN055 30/25 A3010 RMK AO2 LTG DSNT SE T03030253
KORG 221635Z AUTO 00000KT 10SM SCT120 31/25 A3010 RMK AO2 LTG DSNT E T03110252
KORG 221615Z AUTO 03005KT 10SM SCT023 SCT030 SCT090 31/26 A3010 RMK AO2 T03050256
KORG 221555Z AUTO 32004KT 10SM BKN023 BKN033 BKN040 30/26 A3010 RMK AO2 T02990255
KORG 221535Z AUTO 00000KT 10SM SCT023 BKN033 29/25 A3010 RMK AO2 T02940251
KORG 221515Z AUTO 00000KT 10SM SCT021 SCT027 BKN035 30/25 A3010 RMK AO2 T03010254
KORG 221455Z AUTO 00000KT 10SM CLR 29/25 A3009 RMK AO2 T02940254
KORG 221435Z AUTO 08003KT 10SM CLR 29/26 A3009 RMK AO2 T02900260
KORG 221415Z AUTO 07005KT 10SM SCT027 29/26 A3009 RMK AO2 T02860260
KORG 221355Z AUTO 08004KT 10SM SCT027 28/26 A3009 RMK AO2 T02770257
KORG 221335Z AUTO 08003KT 10SM CLR 27/26 A3008 RMK AO2 T02670258
KORG 221315Z AUTO 05003KT 10SM CLR 26/26 A3007 RMK AO2 T02600260
KORG 221255Z AUTO 00000KT 7SM CLR 25/25 A3007 RMK AO2 T02500250
KORG 221235Z AUTO 00000KT 4SM BR CLR 24/24 A3006 RMK AO2 T02420242
KORG 221215Z AUTO 00000KT 4SM BR CLR 24/24 A3005 RMK AO2 T02410241
KORG 221155Z AUTO 00000KT 3SM BR CLR 24/24 A3005 RMK AO2 T02380238 10249 20238
KORG 221135Z AUTO 00000KT 5SM BR CLR 24/24 A3004 RMK AO2 T02400240
KORG 221115Z AUTO 00000KT 7SM CLR 24/24 A3004 RMK AO2 T02420242
KORG 221055Z AUTO 35003KT 7SM SCT035 24/24 A3004 RMK AO2 T02410241
KORG 221035Z AUTO 34003KT 5SM BR CLR 24/24 A3004 RMK AO2 T02410241
KORG 221015Z AUTO 00000KT 7SM CLR 24/24 A3003 RMK AO2 T02410241
KORG 220955Z AUTO 00000KT 7SM CLR 24/24 A3004 RMK AO2 T02410241
KORG 220935Z AUTO 00000KT 7SM CLR 24/24 A3004 RMK AO2 T02410241
KORG 220915Z AUTO 00000KT 7SM CLR 24/24 A3004 RMK AO2 T02420242
KORG 220855Z AUTO 00000KT 7SM CLR 24/24 A3004 RMK AO2 T02430243
KORG 220835Z AUTO 00000KT 5SM BR CLR 24/24 A3005 RMK AO2 T02400240
KORG 220815Z AUTO 00000KT 7SM CLR 24/24 A3005 RMK AO2 T02430243
KORG 220755Z AUTO 00000KT 7SM CLR 25/25 A3005 RMK AO2 T02450245
KORG 220735Z AUTO 00000KT 5SM BR CLR 24/24 A3005 RMK AO2 T02430243
KORG 220715Z AUTO 00000KT 7SM CLR 24/24 A3005 RMK AO2 T02440244
KORG 220655Z AUTO 00000KT 7SM CLR 25/25 A3006 RMK AO2 T02450245
KORG 220635Z AUTO 00000KT 7SM CLR 25/25 A3006 RMK AO2 T02480248
KORG 220615Z AUTO 00000KT 10SM CLR 25/25 A3007 RMK AO2 T02460246
KORG 220555Z AUTO 00000KT 10SM CLR 25/24 A3008 RMK AO2 T02450244 10285 20245 403270245
KORG 220535Z AUTO 00000KT 7SM CLR 25/25 A3009 RMK AO2 T02500249
KORG 220515Z AUTO 00000KT 10SM CLR 25/25 A3009 RMK AO2 T02500250
KORG 220455Z AUTO 00000KT 10SM CLR 25/25 A3009 RMK AO2 T02500246
KORG 220435Z AUTO 00000KT 10SM CLR 26/25 A3010 RMK AO2 LTG DSNT E T02550252
KORG 220415Z AUTO 00000KT 10SM CLR 25/25 A3010 RMK AO2 T02530250
KORG 220355Z AUTO 00000KT 10SM CLR 25/25 A3010 RMK AO2 T02500247
KORG 220335Z AUTO 00000KT 10SM CLR 25/25 A3011 RMK AO2 T02480246
KORG 220315Z AUTO 00000KT 10SM CLR 25/25 A3011 RMK AO2 T02470245
KORG 220255Z AUTO 00000KT 10SM CLR 25/25 A3011 RMK AO2 LTG DSNT NE T02470245
KORG 220235Z AUTO 00000KT 10SM CLR 25/25 A3009 RMK AO2 T02470245
KORG 220215Z AUTO 00000KT 10SM CLR 25/25 A3009 RMK AO2 T02510245
KORG 220155Z AUTO 00000KT 10SM CLR 25/25 A3009 RMK AO2 LTG DSNT NE AND E T02500246
KORG 220135Z AUTO 00000KT 10SM CLR 25/25 A3008 RMK AO2 T02510245
KORG 220115Z AUTO 00000KT 10SM CLR 26/25 A3007 RMK AO2 T02550246
KORG 220055Z AUTO 00000KT 10SM CLR 26/25 A3007 RMK AO2 T02570246
KORG 220035Z AUTO 00000KT 10SM TS SCT040 SCT050 26/24 A3007 RMK AO2 LTG DSNT W T02610239
KORG 220015Z AUTO 32004KT 10SM VCTS BKN038 BKN045 BKN050 27/24 A3007 RMK AO2 LTG DSNT W AND NW T02700239
KORG 212355Z AUTO 31005KT 10SM TS OVC034 29/24 A3006 RMK AO2 LTG DSNT W AND NW T02850243 10327 20275
KORG 212335Z AUTO 00000KT 10SM BKN034 OVC046 30/25 A3006 RMK AO2 T03000245
KORG 212315Z AUTO 09006KT 10SM BKN042 BKN050 BKN065 32/23 A3006 RMK AO2 T03190233
KORG 212255Z AUTO 13004KT 10SM VCTS OVC043 33/24 A3005 RMK AO2 LTG DSNT NE AND NW T03260240
KORG 212235Z AUTO 15007KT 10SM BKN041 BKN050 32/23 A3006 RMK AO2 T03180232
KORG 212215Z AUTO 18005KT 10SM SCT039 BKN048 BKN060 33/24 A3005 RMK AO2 T03260243
KORG 212155Z AUTO 22005KT 10SM SCT050 32/25 A3005 RMK AO2 LTG DSNT NE AND W T03200251
KORG 212135Z AUTO 17004KT 10SM CLR 32/25 A3006 RMK AO2 T03160248
KORG 212115Z AUTO 21003KT 10SM CLR 30/24 A3006 RMK AO2 T02950242
KORG 212055Z AUTO 00000KT 10SM SCT031 SCT043 SCT080 28/24 A3007 RMK AO2 T02800240
KORG 212035Z AUTO 14010KT 10SM SCT031 SCT043 SCT080 31/25 A3008 RMK AO2 T03120251
KORG 212015Z AUTO 23005KT 10SM CLR 30/24 A3007 RMK AO2 T02970238
KORG 211955Z AUTO 23005KT 10SM SCT029 SCT041 SCT060 28/23 A3008 RMK AO2 T02750231
KORG 211935Z AUTO 22009KT 10SM VCTS SCT029 SCT041 BKN070 28/24 A3009 RMK AO2 LTG DSNT SE AND SW T02830235
KORG 211915Z AUTO 00000KT 10SM SCT037 SCT065 28/24 A3008 RMK AO2 LTG DSNT E AND SW T02800241
KORG 211855Z AUTO 25003KT 10SM BKN037 BKN045 29/25 A3009 RMK AO2 T02890250
KORG 211835Z AUTO 20005KT 10SM BKN039 BKN047 31/24 A3009 RMK AO2 LTG DSNT W T03060241
KORG 211815Z AUTO 10006KT 10SM VCTS SCT043 SCT050 SCT060 32/24 A3009 RMK AO2 LTG DSNT SW T03150236
KORG 211755Z AUTO 09005KT 10SM SCT041 BKN048 BKN050 31/24 A3009 RMK AO2 LTG DSNT E T03140237 10323 20247
KORG 211735Z AUTO 10006KT 10SM SCT039 SCT048 SCT065 32/24 A3010 RMK AO2 T03200243
KORG 211715Z AUTO 09005KT 10SM SCT039 BKN047 BKN050 32/25 A3011 RMK AO2 T03200245
KORG 211655Z AUTO 09006KT 10SM SCT035 BKN045 BKN050 32/25 A3011 RMK AO2 T03160246
KORG 211635Z AUTO 09004KT 10SM SCT033 BKN041 BKN055 32/25 A3011 RMK AO2 T03170249
KORG 211615Z AUTO 09006KT 10SM BKN031 BKN039 32/25 A3011 RMK AO2 T03150253
KORG 211555Z AUTO 08006KT 10SM SCT031 BKN037 31/26 A3011 RMK AO2 T03110255
KORG 211535Z AUTO 09006KT 10SM BKN027 BKN035 31/25 A3010 RMK AO2 T03070254
KORG 211515Z AUTO 07006KT 10SM SCT027 SCT033 30/26 A3010 RMK AO2 T03000262
KORG 211455Z AUTO 07005KT 10SM CLR 31/26 A3009 RMK AO2 T03050262
KORG 211435Z AUTO 08005KT 10SM CLR 30/27 A3010 RMK AO2 T03000266
KORG 211415Z AUTO 10005KT 10SM CLR 29/27 A3010 RMK AO2 T02930265
KORG 211355Z AUTO 08005KT 10SM CLR 29/27 A3009 RMK AO2 T02850266
KORG 211335Z AUTO 08004KT 10SM CLR 28/27 A3009 RMK AO2 T02770265
KORG 211315Z AUTO 07004KT 7SM CLR 27/26 A3008 RMK AO2 T02670262
KORG 211255Z AUTO 05003KT 7SM CLR 26/26 A3008 RMK AO2 T02590259
KORG 211235Z AUTO 06003KT 5SM BR CLR 25/25 A3008 RMK AO2 T02540254
KORG 211215Z AUTO 00000KT 5SM BR CLR 25/25 A3008 RMK AO2 T02490249
KORG 211155Z AUTO 00000KT 5SM BR CLR 25/25 A3007 RMK AO2 T02470247 10254 20246
KORG 211135Z AUTO 00000KT 4SM BR CLR 25/25 A3007 RMK AO2 T02470247
KORG 211115Z AUTO 00000KT 4SM BR CLR 25/25 A3007 RMK AO2 T02490249
KORG 211055Z AUTO 00000KT 4SM BR CLR 25/25 A3007 RMK AO2 T02500250
KORG 211035Z AUTO 00000KT 4SM BR CLR 25/25 A3008 RMK AO2 T02500250